createdAt,value
2018-04-22T00:02:23.291Z,14.12
2018-04-22T00:04:53.032Z,13.91
2018-04-22T00:07:22.650Z,13.82
2018-04-22T00:09:52.980Z,14.06
2018-04-22T00:12:23.114Z,14.17
2018-04-22T00:14:52.814Z,14.46
2018-04-22T00:17:23.301Z,14.60
2018-04-22T00:19:52.987Z,14.42
2018-04-22T00:22:22.445Z,14.58
2018-04-22T00:24:52.151Z,14.38
2018-04-22T00:27:21.896Z,14.18
2018-04-22T00:29:52.238Z,14.17
2018-04-22T00:32:21.793Z,14.07
2018-04-22T00:34:53.016Z,13.96
2018-04-22T00:37:22.659Z,13.83
2018-04-22T00:39:52.438Z,13.73
2018-04-22T00:42:22.238Z,13.66
2018-04-22T00:44:51.954Z,13.65
2018-04-22T00:47:21.452Z,13.67
2018-04-22T00:49:51.105Z,13.67
2018-04-22T00:52:20.804Z,13.74
2018-04-22T00:54:50.587Z,13.66
2018-04-22T00:57:20.115Z,13.53
2018-04-22T00:59:49.930Z,13.66
2018-04-22T01:02:19.524Z,13.88
2018-04-22T01:04:49.177Z,14.07
2018-04-22T01:07:18.949Z,13.92
2018-04-22T01:09:48.869Z,13.93
2018-04-22T01:12:18.456Z,14.02
2018-04-22T01:14:48.184Z,14.10
2018-04-22T01:17:28.318Z,14.04
2018-04-22T01:20:03.385Z,13.88
2018-04-22T01:22:36.535Z,13.85
2018-04-22T01:25:06.592Z,13.88
2018-04-22T01:27:36.397Z,13.86
2018-04-22T01:30:05.920Z,13.87
2018-04-22T01:32:35.879Z,13.97
2018-04-22T01:35:06.210Z,13.93
2018-04-22T01:37:35.772Z,14.00
2018-04-22T01:40:05.743Z,14.04
2018-04-22T01:42:36.137Z,13.83
2018-04-22T01:45:06.435Z,13.68
2018-04-22T01:47:36.130Z,13.60
2018-04-22T01:50:05.704Z,13.60
2018-04-22T01:52:35.455Z,13.54
2018-04-22T01:55:05.154Z,13.40
2018-04-22T01:57:34.770Z,13.20
2018-04-22T02:00:04.539Z,13.29
2018-04-22T02:02:34.434Z,13.27
2018-04-22T02:05:04.797Z,13.16
2018-04-22T02:07:35.459Z,12.97
2018-04-22T02:10:05.828Z,12.85
2018-04-22T02:12:35.468Z,12.90
2018-04-22T02:15:05.126Z,12.79
2018-04-22T02:17:35.754Z,12.60
2018-04-22T02:20:05.303Z,12.45
2018-04-22T02:22:35.578Z,12.21
2018-04-22T02:25:05.271Z,12.06
2018-04-22T02:27:35.050Z,12.08
2018-04-22T02:30:05.005Z,12.13
2018-04-22T02:32:35.377Z,12.16
2018-04-22T02:35:05.175Z,12.19
2018-04-22T02:37:34.780Z,12.46
2018-04-22T02:40:05.156Z,12.65
2018-04-22T02:42:34.721Z,12.80
2018-04-22T02:45:04.289Z,13.12
2018-04-22T02:47:34.255Z,13.16
2018-04-22T02:50:04.018Z,13.08
2018-04-22T02:52:33.690Z,13.02
2018-04-22T02:55:03.302Z,13.02
2018-04-22T02:57:33.051Z,12.89
2018-04-22T03:00:02.970Z,12.80
2018-04-22T03:02:32.470Z,12.64
2018-04-22T03:05:03.819Z,12.50
2018-04-22T03:07:33.377Z,12.30
2018-04-22T03:10:02.905Z,12.12
2018-04-22T03:12:32.658Z,11.96
2018-04-22T03:15:02.225Z,11.88
2018-04-22T03:17:31.833Z,11.75
2018-04-22T03:20:01.469Z,11.59
2018-04-22T03:22:30.934Z,11.47
2018-04-22T03:25:00.455Z,11.30
2018-04-22T03:27:30.131Z,11.22
2018-04-22T03:30:00.515Z,11.20
2018-04-22T03:32:31.624Z,11.22
2018-04-22T03:35:01.243Z,11.29
2018-04-22T03:37:30.729Z,11.55
2018-04-22T03:40:00.289Z,11.66
2018-04-22T03:42:29.776Z,11.70
2018-04-22T03:44:59.473Z,11.90
2018-04-22T03:47:29.892Z,11.96
2018-04-22T03:50:00.197Z,12.18
2018-04-22T03:52:29.884Z,12.54
2018-04-22T03:54:59.431Z,12.92
2018-04-22T03:57:28.943Z,13.08
2018-04-22T03:59:58.571Z,13.12
2018-04-22T04:02:28.080Z,13.14
2018-04-22T04:04:57.669Z,12.85
2018-04-22T04:07:27.378Z,12.51
2018-04-22T04:09:56.972Z,12.15
2018-04-22T04:12:26.700Z,11.87
2018-04-22T04:14:56.261Z,11.67
2018-04-22T04:17:25.742Z,11.43
2018-04-22T04:20:13.152Z,11.33
2018-04-22T04:22:47.425Z,11.28
2018-04-22T04:28:25.771Z,11.11
2018-04-22T04:30:55.723Z,10.94
2018-04-22T04:33:25.222Z,11.26
2018-04-22T04:35:54.737Z,11.81
2018-04-22T04:38:24.977Z,12.31
2018-04-22T04:40:59.900Z,12.64
2018-04-22T04:43:29.712Z,12.79
2018-04-22T04:45:59.424Z,12.89
2018-04-22T04:48:28.985Z,13.03
2018-04-22T04:50:58.505Z,13.17
2018-04-22T04:53:28.149Z,13.32
2018-04-22T04:55:57.648Z,13.51
2018-04-22T04:58:28.891Z,13.69
2018-04-22T05:00:58.465Z,13.74
2018-04-22T05:03:27.988Z,13.89
2018-04-22T05:05:57.813Z,14.18
2018-04-22T05:08:27.313Z,14.44
2018-04-22T05:10:57.681Z,14.74
2018-04-22T05:13:28.009Z,15.31
2018-04-22T05:15:58.292Z,15.91
2018-04-22T05:18:28.309Z,16.54
2018-04-22T05:20:57.830Z,16.67
2018-04-22T05:23:27.711Z,16.96
2018-04-22T05:25:58.222Z,17.31
2018-04-22T05:28:28.704Z,17.75
2018-04-22T05:30:58.594Z,18.11
2018-04-22T05:33:29.175Z,18.41
2018-04-22T05:35:59.261Z,18.58
2018-04-22T05:38:29.355Z,18.81
2018-04-22T05:41:01.558Z,19.11
2018-04-22T05:43:31.366Z,19.24
2018-04-22T05:46:01.177Z,18.95
2018-04-22T05:48:30.994Z,19.04
2018-04-22T05:51:02.349Z,18.20
2018-04-22T05:53:32.008Z,17.68
2018-04-22T05:56:02.069Z,18.05
2018-04-22T05:58:31.601Z,18.30
2018-04-22T06:01:01.963Z,18.08
2018-04-22T06:03:31.598Z,18.61
2018-04-22T06:06:01.955Z,18.98
2018-04-22T06:08:31.689Z,19.23
2018-04-22T06:11:01.568Z,19.31
2018-04-22T06:13:31.380Z,19.16
2018-04-22T06:16:01.706Z,19.69
2018-04-22T06:18:32.466Z,19.78
2018-04-22T06:21:02.398Z,20.13
2018-04-22T06:23:32.753Z,20.58
2018-04-22T06:26:02.410Z,21.09
2018-04-22T06:28:32.614Z,21.45
2018-04-22T06:31:04.717Z,21.65
2018-04-22T06:33:35.665Z,21.45
2018-04-22T06:36:05.741Z,21.25
2018-04-22T06:38:35.437Z,20.90
2018-04-22T06:41:05.180Z,20.71
2018-04-22T06:43:34.697Z,20.55
2018-04-22T06:46:05.163Z,20.39
2018-04-22T06:48:34.771Z,20.72
2018-04-22T06:51:04.410Z,21.02
2018-04-22T06:53:34.053Z,20.88
2018-04-22T06:56:05.055Z,21.70
2018-04-22T06:58:34.783Z,22.29
2018-04-22T07:01:04.392Z,22.50
2018-04-22T07:03:34.101Z,22.72
2018-04-22T07:06:03.824Z,22.21
2018-04-22T07:08:33.430Z,22.23
2018-04-22T07:11:02.983Z,23.09
2018-04-22T07:13:32.913Z,23.82
2018-04-22T07:16:02.370Z,23.48
2018-04-22T07:18:33.419Z,23.06
2018-04-22T07:21:03.913Z,22.69
2018-04-22T07:23:33.666Z,22.76
2018-04-22T07:26:04.244Z,24.17
2018-04-22T07:28:34.087Z,24.47
2018-04-22T07:31:03.668Z,23.18
2018-04-22T07:33:33.639Z,21.95
2018-04-22T07:36:03.552Z,21.48
2018-04-22T07:38:33.094Z,20.84
2018-04-22T07:41:02.925Z,20.97
2018-04-22T07:43:32.693Z,21.27
2018-04-22T07:46:03.246Z,20.70
2018-04-22T07:48:32.990Z,21.14
2018-04-22T07:51:02.828Z,22.18
2018-04-22T07:53:33.572Z,22.06
2018-04-22T07:56:03.179Z,22.38
2018-04-22T07:58:32.666Z,22.03
2018-04-22T08:01:02.483Z,22.55
2018-04-22T08:03:32.049Z,22.24
2018-04-22T08:06:01.773Z,22.66
2018-04-22T08:08:31.354Z,22.29
2018-04-22T08:11:01.268Z,22.54
2018-04-22T08:13:30.858Z,22.32
2018-04-22T08:16:01.520Z,22.60
2018-04-22T08:18:31.270Z,22.79
2018-04-22T08:21:01.190Z,23.52
2018-04-22T08:23:31.078Z,24.04
2018-04-22T08:26:00.814Z,23.38
2018-04-22T08:28:30.527Z,23.75
2018-04-22T08:31:00.670Z,24.04
2018-04-22T08:33:30.948Z,24.64
2018-04-22T08:36:01.406Z,25.28
2018-04-22T08:38:31.843Z,25.36
2018-04-22T08:41:02.436Z,25.50
2018-04-22T08:43:32.166Z,25.77
2018-04-22T08:46:01.851Z,25.71
2018-04-22T08:48:31.580Z,25.01
2018-04-22T08:51:01.685Z,24.95
2018-04-22T08:53:31.562Z,25.06
2018-04-22T08:56:01.299Z,25.13
2018-04-22T08:58:31.250Z,24.95
2018-04-22T09:01:00.908Z,25.08
2018-04-22T09:03:30.726Z,24.93
2018-04-22T09:06:00.440Z,25.67
2018-04-22T09:08:30.367Z,26.14
2018-04-22T09:11:00.156Z,25.79
2018-04-22T09:13:30.053Z,26.25
2018-04-22T09:16:00.937Z,25.26
2018-04-22T09:18:30.480Z,25.16
2018-04-22T09:21:00.162Z,24.56
2018-04-22T09:23:30.130Z,24.86
2018-04-22T09:25:59.787Z,24.35
2018-04-22T09:28:30.870Z,25.08
2018-04-22T09:31:01.252Z,25.84
2018-04-22T09:33:31.260Z,25.76
2018-04-22T09:36:01.039Z,25.49
2018-04-22T09:38:31.484Z,24.87
2018-04-22T09:41:02.529Z,25.66
2018-04-22T09:43:35.569Z,25.70
2018-04-22T09:46:05.858Z,25.73
2018-04-22T09:48:35.452Z,26.30
2018-04-22T09:51:05.077Z,25.80
2018-04-22T09:53:34.899Z,27.11
2018-04-22T09:56:04.610Z,27.67
2018-04-22T09:58:34.339Z,28.56
2018-04-22T10:01:03.869Z,28.55
2018-04-22T10:03:37.277Z,28.07
2018-04-22T10:06:07.641Z,27.98
2018-04-22T10:08:37.889Z,29.24
2018-04-22T10:11:07.600Z,29.60
2018-04-22T10:13:37.108Z,29.59
2018-04-22T10:16:06.861Z,29.39
2018-04-22T10:18:36.353Z,29.30
2018-04-22T10:21:06.804Z,29.39
2018-04-22T10:23:36.464Z,30.32
2018-04-22T10:26:06.844Z,29.32
2018-04-22T10:28:36.499Z,27.75
2018-04-22T10:31:06.108Z,28.94
2018-04-22T10:33:35.771Z,29.64
2018-04-22T10:36:05.430Z,29.67
2018-04-22T10:38:35.080Z,29.24
2018-04-22T10:41:04.732Z,29.69
2018-04-22T10:43:35.179Z,29.72
2018-04-22T10:46:05.852Z,29.05
2018-04-22T10:48:35.367Z,28.93
2018-04-22T10:51:06.626Z,28.86
2018-04-22T10:53:36.402Z,29.62
2018-04-22T10:56:07.159Z,30.29
2018-04-22T10:58:37.096Z,30.28
2018-04-22T11:01:06.823Z,30.58
2018-04-22T11:03:36.513Z,30.23
2018-04-22T11:06:06.059Z,29.95
2018-04-22T11:08:35.800Z,30.25
2018-04-22T11:11:06.962Z,29.74
2018-04-22T11:13:36.489Z,29.86
2018-04-22T11:16:06.385Z,29.80
2018-04-22T11:18:36.541Z,28.40
2018-04-22T11:21:06.610Z,28.54
2018-04-22T11:23:36.618Z,28.90
2018-04-22T11:26:16.594Z,29.60
2018-04-22T11:28:51.635Z,29.75
2018-04-22T11:31:21.631Z,30.40
2018-04-22T11:33:51.524Z,30.36
2018-04-22T11:36:21.112Z,30.32
2018-04-22T11:38:51.915Z,30.20
2018-04-22T11:41:21.631Z,29.53
2018-04-22T11:43:51.207Z,30.13
2018-04-22T11:46:23.003Z,30.11
2018-04-22T11:48:53.947Z,30.94
2018-04-22T11:51:23.736Z,31.80
2018-04-22T11:53:53.442Z,31.20
2018-04-22T11:56:23.152Z,30.94
2018-04-22T11:58:52.703Z,31.31
2018-04-22T12:01:22.235Z,30.65
2018-04-22T12:03:52.067Z,30.70
2018-04-22T12:06:21.909Z,31.02
2018-04-22T12:08:51.687Z,31.14
2018-04-22T12:11:22.030Z,31.39
2018-04-22T12:13:51.637Z,31.46
2018-04-22T12:16:21.251Z,31.78
2018-04-22T12:18:50.956Z,31.76
2018-04-22T12:21:20.878Z,31.26
2018-04-22T12:23:50.894Z,30.00
2018-04-22T12:26:20.937Z,29.58
2018-04-22T12:28:50.857Z,28.47
2018-04-22T12:31:20.440Z,27.32
2018-04-22T12:33:50.187Z,26.70
2018-04-22T12:36:20.064Z,26.39
2018-04-22T12:38:49.939Z,26.18
2018-04-22T12:41:19.795Z,27.42
2018-04-22T12:43:49.529Z,28.17
2018-04-22T12:46:19.339Z,29.05
2018-04-22T12:48:49.010Z,29.60
2018-04-22T12:51:28.710Z,29.94
2018-04-22T12:53:58.512Z,30.31
2018-04-22T12:56:28.116Z,30.24
2018-04-22T12:58:58.891Z,29.53
2018-04-22T13:01:28.957Z,28.94
2018-04-22T13:03:58.558Z,28.59
2018-04-22T13:06:28.978Z,28.37
2018-04-22T13:08:58.654Z,28.31
2018-04-22T13:11:50.976Z,28.18
2018-04-22T13:14:21.588Z,27.91
2018-04-22T13:16:51.491Z,27.67
2018-04-22T13:19:21.629Z,27.44
2018-04-22T13:21:51.239Z,27.22
2018-04-22T13:24:21.784Z,27.04
2018-04-22T13:26:51.435Z,26.87
2018-04-22T13:29:21.926Z,26.84
2018-04-22T13:31:52.729Z,26.78
2018-04-22T13:34:22.240Z,26.69
2018-04-22T13:36:52.041Z,26.70
2018-04-22T13:39:21.640Z,26.72
2018-04-22T13:41:51.367Z,26.57
2018-04-22T13:44:21.854Z,26.37
2018-04-22T13:46:52.144Z,26.13
2018-04-22T13:49:21.789Z,25.91
2018-04-22T13:51:51.463Z,25.75
2018-04-22T13:54:21.052Z,25.65
2018-04-22T13:56:50.761Z,25.61
2018-04-22T13:59:20.785Z,25.77
2018-04-22T14:01:50.501Z,25.69
2018-04-22T14:04:20.302Z,25.76
2018-04-22T14:06:49.818Z,25.91
2018-04-22T14:09:19.502Z,25.99
2018-04-22T14:11:50.031Z,25.96
2018-04-22T14:14:19.879Z,25.87
2018-04-22T14:16:49.657Z,25.78
2018-04-22T14:19:19.164Z,25.63
2018-04-22T14:21:48.620Z,25.60
2018-04-22T14:24:18.342Z,25.63
2018-04-22T14:26:48.161Z,25.69
2018-04-22T14:29:18.422Z,25.68
2018-04-22T14:31:48.316Z,25.73
2018-04-22T14:34:18.899Z,25.82
2018-04-22T14:36:48.689Z,25.71
2018-04-22T14:39:18.714Z,25.70
2018-04-22T14:41:48.426Z,25.61
2018-04-22T14:44:35.949Z,25.62
2018-04-22T14:47:05.505Z,25.53
2018-04-22T14:49:34.982Z,25.53
2018-04-22T14:52:04.677Z,25.50
2018-04-22T14:54:34.280Z,25.43
2018-04-22T14:57:03.999Z,25.40
2018-04-22T14:59:33.515Z,25.31
2018-04-22T15:02:03.635Z,25.21
2018-04-22T15:04:34.174Z,25.19
2018-04-22T15:07:04.031Z,25.09
2018-04-22T15:09:33.651Z,25.08
2018-04-22T15:12:04.305Z,24.96
2018-04-22T15:14:33.993Z,24.86
2018-04-22T15:17:03.716Z,24.98
2018-04-22T15:19:33.451Z,24.96
2018-04-22T15:22:02.999Z,24.89
2018-04-22T15:24:33.495Z,24.81
2018-04-22T15:27:03.101Z,24.79
2018-04-22T15:29:32.902Z,24.64
2018-04-22T15:32:02.950Z,24.45
2018-04-22T15:34:33.013Z,24.42
2018-04-22T15:37:02.610Z,24.37
2018-04-22T15:39:32.365Z,24.28
2018-04-22T15:42:02.201Z,24.34
2018-04-22T15:44:32.083Z,24.34
2018-04-22T15:47:03.551Z,24.39
2018-04-22T15:49:33.152Z,24.36
2018-04-22T15:52:02.781Z,24.34
2018-04-22T15:54:33.512Z,24.22
2018-04-22T15:57:03.133Z,24.12
2018-04-22T15:59:33.004Z,24.07
2018-04-22T16:02:03.909Z,23.96
2018-04-22T16:04:33.554Z,23.84
2018-04-22T16:07:03.638Z,23.69
2018-04-22T16:09:33.966Z,23.65
2018-04-22T16:12:03.590Z,23.64
2018-04-22T16:14:33.657Z,23.53
2018-04-22T16:17:04.237Z,23.58
2018-04-22T16:19:34.350Z,23.58
2018-04-22T16:22:04.020Z,23.45
2018-04-22T16:24:33.838Z,23.55
2018-04-22T16:27:04.641Z,23.50
2018-04-22T16:29:34.721Z,23.46
2018-04-22T16:32:05.394Z,23.37
2018-04-22T16:34:36.024Z,23.31
2018-04-22T16:37:05.741Z,23.18
2018-04-22T16:39:36.012Z,23.12
2018-04-22T16:42:06.173Z,23.05
2018-04-22T16:44:36.021Z,23.04
2018-04-22T16:47:07.599Z,23.09
2018-04-22T16:49:38.014Z,23.02
2018-04-22T16:52:08.080Z,23.00
2018-04-22T16:54:38.900Z,23.03
2018-04-22T16:57:08.800Z,23.09
2018-04-22T16:59:38.456Z,23.09
2018-04-22T17:02:10.918Z,23.07
2018-04-22T17:04:40.652Z,22.80
2018-04-22T17:07:10.446Z,22.57
2018-04-22T17:09:40.072Z,22.55
2018-04-22T17:12:09.893Z,22.61
2018-04-22T17:21:20.945Z,22.54
2018-04-22T17:24:30.514Z,22.22
2018-04-22T17:27:05.617Z,22.06
2018-04-22T17:29:35.644Z,21.84
2018-04-22T17:32:06.774Z,21.64
2018-04-22T17:34:36.900Z,21.51
2018-04-22T17:37:07.434Z,21.51
2018-04-22T17:39:37.250Z,21.62
2018-04-22T17:42:31.520Z,21.62
2018-04-22T17:47:55.846Z,21.54
2018-04-22T17:50:27.072Z,21.46
2018-04-22T17:52:57.356Z,21.36
2018-04-22T17:55:27.369Z,21.21
2018-04-22T17:57:58.987Z,21.20
2018-04-22T18:00:42.034Z,21.14
2018-04-22T18:03:19.579Z,21.01
2018-04-22T18:05:50.573Z,20.94
2018-04-22T18:08:20.689Z,20.89
2018-04-22T18:10:51.795Z,20.77
2018-04-22T18:13:22.711Z,20.54
2018-04-22T18:15:54.225Z,20.35
2018-04-22T18:18:24.211Z,20.02
2018-04-22T18:20:55.954Z,19.84
2018-04-22T18:23:26.392Z,19.64
2018-04-22T18:25:56.830Z,19.48
2018-04-22T18:28:27.166Z,19.57
2018-04-22T18:30:57.664Z,19.40
2018-04-22T18:33:27.769Z,19.22
2018-04-22T18:35:57.858Z,19.27
2018-04-22T18:38:28.241Z,19.43
2018-04-22T18:40:58.280Z,19.69
2018-04-22T18:43:29.232Z,19.89
2018-04-22T18:45:59.625Z,19.97
2018-04-22T18:48:29.566Z,20.02
2018-04-22T18:50:59.867Z,20.08
2018-04-22T18:53:29.983Z,20.06
2018-04-22T18:56:00.246Z,20.00
2018-04-22T18:58:31.361Z,19.88
2018-04-22T19:01:02.494Z,19.87
2018-04-22T19:03:32.637Z,19.82
2018-04-22T19:06:04.550Z,19.84
2018-04-22T19:08:36.681Z,19.80
2018-04-22T19:11:07.004Z,19.70
2018-04-22T19:13:37.044Z,19.56
2018-04-22T19:18:45.357Z,19.45
2018-04-22T19:21:17.800Z,19.38
2018-04-22T19:23:49.053Z,19.18
2018-04-22T19:26:20.608Z,19.06
2018-04-22T19:28:52.133Z,19.14
2018-04-22T19:31:22.988Z,19.38
2018-04-22T19:33:52.947Z,19.42
2018-04-22T19:36:33.345Z,19.44
2018-04-22T19:39:06.750Z,19.41
2018-04-22T19:41:36.609Z,19.37
2018-04-22T19:44:07.315Z,19.35
2018-04-22T19:46:37.642Z,19.37
2018-04-22T19:49:07.748Z,19.38
2018-04-22T19:51:38.985Z,19.31
2018-04-22T19:54:08.996Z,19.17
2018-04-22T19:56:38.907Z,19.11
2018-04-22T19:59:08.792Z,19.00
2018-04-22T20:01:39.567Z,18.88
2018-04-22T20:04:09.304Z,18.76
2018-04-22T20:06:39.184Z,18.82
2018-04-22T20:09:09.344Z,18.65
2018-04-22T20:11:39.739Z,18.56
2018-04-22T20:14:09.529Z,18.62
2018-04-22T20:16:40.088Z,18.66
2018-04-22T20:19:09.830Z,18.55
2018-04-22T20:21:39.445Z,18.43
2018-04-22T20:24:08.978Z,18.39
2018-04-22T20:29:13.486Z,18.40
2018-04-22T20:31:43.252Z,18.36
2018-04-22T20:34:14.050Z,18.26
2018-04-22T20:36:43.856Z,18.18
2018-04-22T20:39:13.464Z,18.01
2018-04-22T20:41:42.971Z,17.71
2018-04-22T20:44:12.826Z,17.20
2018-04-22T20:46:43.676Z,16.95
2018-04-22T20:49:13.479Z,16.73
2018-04-22T20:51:43.161Z,16.89
2018-04-22T20:54:12.775Z,17.06
2018-04-22T20:56:42.501Z,17.12
2018-04-22T20:59:12.931Z,17.07
2018-04-22T21:01:42.641Z,16.91
2018-04-22T21:06:48.801Z,17.04
2018-04-22T21:09:19.449Z,17.05
2018-04-22T21:11:49.095Z,16.84
2018-04-22T21:14:19.898Z,16.68
2018-04-22T21:16:49.457Z,16.29
2018-04-22T21:19:19.871Z,15.89
2018-04-22T21:21:49.508Z,15.69
2018-04-22T21:24:23.140Z,15.47
2018-04-22T21:26:57.859Z,15.36
2018-04-22T21:29:27.587Z,15.56
2018-04-22T21:31:58.276Z,15.93
2018-04-22T21:34:27.981Z,16.33
2018-04-22T21:36:58.970Z,16.67
2018-04-22T21:39:30.081Z,16.89
2018-04-22T21:42:00.871Z,16.95
2018-04-22T21:44:30.632Z,16.83
2018-04-22T21:47:01.064Z,16.71
2018-04-22T21:49:30.629Z,16.59
2018-04-22T21:52:00.226Z,16.46
2018-04-22T21:54:29.920Z,16.26
2018-04-22T21:56:59.435Z,16.13
2018-04-22T21:59:28.965Z,16.04
2018-04-22T22:01:59.255Z,15.87
2018-04-22T22:04:29.528Z,15.73
2018-04-22T22:07:00.156Z,15.66
2018-04-22T22:09:31.150Z,15.71
2018-04-22T22:12:01.571Z,15.75
2018-04-22T22:14:31.467Z,15.71
2018-04-22T22:17:01.718Z,15.75
2018-04-22T22:22:08.632Z,15.81
2018-04-22T22:24:40.175Z,15.77
2018-04-22T22:27:10.593Z,15.52
2018-04-22T22:29:41.138Z,15.26
2018-04-22T22:32:11.758Z,15.11
2018-04-22T22:34:41.962Z,15.06
2018-04-22T22:37:12.725Z,15.12
2018-04-22T22:39:44.076Z,15.20
2018-04-22T22:42:15.945Z,15.17
2018-04-22T22:44:46.522Z,14.95
2018-04-22T22:47:16.651Z,14.62
2018-04-22T22:49:46.905Z,14.43
2018-04-22T22:52:16.819Z,14.27
2018-04-22T22:54:47.568Z,14.21
2018-04-22T22:57:18.560Z,14.36
2018-04-22T22:59:48.819Z,14.47
2018-04-22T23:02:19.044Z,14.47
2018-04-22T23:04:49.091Z,14.51
2018-04-22T23:07:19.237Z,14.43
2018-04-22T23:09:51.352Z,14.35
2018-04-22T23:12:21.601Z,14.23
2018-04-22T23:14:52.199Z,13.92
2018-04-22T23:17:23.885Z,13.76
2018-04-22T23:19:55.067Z,13.81
2018-04-22T23:22:25.061Z,13.75
2018-04-22T23:24:56.481Z,13.77
2018-04-22T23:27:27.147Z,13.66
2018-04-22T23:29:57.523Z,13.74
2018-04-22T23:32:27.593Z,13.85
2018-04-22T23:35:01.321Z,13.90
2018-04-22T23:37:31.869Z,13.88
2018-04-22T23:40:02.207Z,13.82
2018-04-22T23:42:33.431Z,13.59
2018-04-22T23:45:04.018Z,13.65
2018-04-22T23:47:34.553Z,13.75
2018-04-22T23:50:04.820Z,13.56
2018-04-22T23:52:34.770Z,13.11
2018-04-22T23:55:04.522Z,13.11
2018-04-22T23:57:34.287Z,13.13
